Time;durP1;ratioP1;P1;durP2;ratioP2;P2;SDS_P1;SDS_P2;PMS_P1;PMS_P2;Temp;Humidity;BMP_temperature;BMP_pressure;BME280_temperature;BME280_humidity;BME280_pressure;Samples;Min_cycle;Max_cycle;Signal;HPM_P1;HPM_P2
2023/09/21 00:00:13;;;;;;;410.55;365.92;;;;;;;22.67;71.53;99680.03;337734;29;1415;-70
2023/09/21 00:00:23;;;;;;;404.73;360.40;;;;;;;22.67;71.46;99680.03;334953;29;981;-70
2023/09/21 00:00:34;;;;;;;399.40;353.83;;;;;;;22.67;71.51;99680.03;334863;29;1075;-70
2023/09/21 00:00:45;;;;;;;400.10;354.08;;;;;;;22.68;71.49;99675.53;336131;29;939;-70
2023/09/21 00:01:05;;;;;;;405.83;361.07;;;;;;;22.68;71.50;99675.53;334780;29;877;-70
2023/09/21 00:01:16;;;;;;;416.38;371.23;;;;;;;22.67;71.33;99677.38;329475;29;1690;-70
2023/09/21 00:01:28;;;;;;;418.38;373.17;;;;;;;22.66;71.05;99680.16;329597;29;1210;-70
2023/09/21 00:01:39;;;;;;;415.85;370.67;;;;;;;22.66;71.28;99681.00;328438;30;1238;-70
2023/09/21 00:01:52;;;;;;;415.35;370.40;;;;;;;22.66;71.28;99670.34;332522;29;1626;-70
2023/09/21 00:02:04;;;;;;;413.65;368.88;;;;;;;22.66;70.90;99678.34;332064;29;2059;-70
2023/09/21 00:02:14;;;;;;;415.77;370.75;;;;;;;22.66;71.13;99672.16;332240;29;1678;-70
2023/09/21 00:02:27;;;;;;;410.90;366.00;;;;;;;22.66;71.20;99674.84;331171;29;808;-70
2023/09/21 00:02:55;;;;;;;405.23;360.58;;;;;;;22.64;71.19;99677.63;326847;30;1213;-70
2023/09/21 00:03:07;;;;;;;414.73;370.10;;;;;;;22.61;71.04;99674.41;318053;30;1890;-70
2023/09/21 00:03:17;;;;;;;416.58;371.73;;;;;;;22.59;71.10;99674.53;319785;30;2327;-70
2023/09/21 00:03:30;;;;;;;416.53;371.47;;;;;;;22.58;71.43;99680.84;323791;30;1203;-70
2023/09/21 00:03:41;;;;;;;410.23;365.38;;;;;;;22.57;71.42;99680.00;320137;30;805;-70
2023/09/21 00:03:51;;;;;;;408.90;364.20;;;;;;;22.58;71.21;99680.84;316014;31;2343;-70
2023/09/21 00:04:02;;;;;;;409.07;364.33;;;;;;;22.59;71.24;99674.53;317841;30;2585;-70
2023/09/21 00:04:12;;;;;;;405.40;360.75;;;;;;;22.58;70.92;99672.84;316721;30;1214;-70
2023/09/21 00:04:22;;;;;;;411.40;366.63;;;;;;;22.58;70.97;99681.69;312714;31;2376;-70
2023/09/21 00:04:33;;;;;;;417.83;373.00;;;;;;;22.56;70.90;99675.66;315842;30;1513;-70
2023/09/21 00:04:44;;;;;;;418.17;373.38;;;;;;;22.56;71.41;99682.81;316741;30;1274;-70
2023/09/21 00:04:54;;;;;;;415.97;371.27;;;;;;;22.56;71.01;99683.66;317777;31;1211;-70
2023/09/21 00:05:06;;;;;;;418.17;373.37;;;;;;;22.58;70.71;99680.84;318772;30;1940;-70
2023/09/21 00:05:20;;;;;;;418.30;373.20;;;;;;;22.56;70.88;99678.31;318498;30;3489;-70
2023/09/21 00:05:31;;;;;;;412.98;367.88;;;;;;;22.56;71.18;99678.31;318181;30;3243;-70
2023/09/21 00:05:47;;;;;;;414.58;369.63;;;;;;;22.54;70.93;99679.44;314478;31;863;-70
2023/09/21 00:05:57;;;;;;;418.02;373.14;;;;;;;22.56;71.01;99682.81;317832;31;1329;-70
2023/09/21 00:06:08;;;;;;;419.57;374.73;;;;;;;22.56;71.10;99682.81;315846;30;3352;-70
2023/09/21 00:06:18;;;;;;;415.92;371.17;;;;;;;22.55;71.00;99678.47;317513;30;3418;-70
2023/09/21 00:06:29;;;;;;;412.23;367.53;;;;;;;22.54;70.93;99679.44;319842;30;3079;-70
2023/09/21 00:06:39;;;;;;;415.98;371.15;;;;;;;22.54;71.06;99676.78;317933;31;1218;-70
2023/09/21 00:06:50;;;;;;;419.03;374.00;;;;;;;22.53;70.97;99677.75;315192;31;2319;-70
2023/09/21 00:07:00;;;;;;;416.73;371.83;;;;;;;22.54;71.19;99676.78;314472;30;2559;-70
2023/09/21 00:07:11;;;;;;;412.35;367.63;;;;;;;22.53;70.75;99677.75;316693;31;1161;-70
2023/09/21 00:07:21;;;;;;;413.20;368.58;;;;;;;22.54;71.13;99687.44;316984;30;2669;-70
2023/09/21 00:07:32;;;;;;;420.00;375.10;;;;;;;22.53;70.98;99683.09;314727;31;3608;-70
2023/09/21 00:07:42;;;;;;;420.50;375.48;;;;;;;22.53;70.92;99681.25;314051;31;1181;-70
2023/09/21 00:07:57;;;;;;;422.43;377.37;;;;;;;22.53;71.09;99677.75;312182;31;4611;-70
2023/09/21 00:08:07;;;;;;;417.55;372.40;;;;;;;22.52;70.95;99684.09;308372;31;4604;-70
2023/09/21 00:08:17;;;;;;;410.23;363.30;;;;;;;22.53;70.81;99688.44;305234;32;4821;-70
2023/09/21 00:08:28;;;;;;;410.23;364.70;;;;;;;22.53;71.08;99681.25;305865;32;884;-70
2023/09/21 00:08:40;;;;;;;418.27;373.05;;;;;;;22.53;70.85;99683.09;297745;33;1309;-70
2023/09/21 00:08:52;;;;;;;414.58;369.75;;;;;;;22.53;71.51;99677.75;301531;32;3853;-70
2023/09/21 00:09:03;;;;;;;404.50;359.83;;;;;;;22.53;70.83;99688.44;301346;32;2959;-70
2023/09/21 00:09:14;;;;;;;404.30;359.10;;;;;;;22.52;71.00;99687.59;299779;32;3035;-70
2023/09/21 00:09:25;;;;;;;410.28;365.50;;;;;;;22.52;70.80;99682.28;300180;32;1187;-70
2023/09/21 00:09:35;;;;;;;411.63;366.90;;;;;;;22.53;71.20;99683.09;295768;32;4393;-70
2023/09/21 00:09:46;;;;;;;408.92;364.55;;;;;;;22.52;71.05;99676.94;293687;33;5609;-70
2023/09/21 00:09:57;;;;;;;408.50;363.93;;;;;;;22.51;70.91;99685.06;294175;33;1182;-70
2023/09/21 00:10:08;;;;;;;410.13;365.25;;;;;;;22.49;71.03;99681.69;296790;33;6775;-70
2023/09/21 00:10:19;;;;;;;409.40;364.33;;;;;;;22.49;71.10;99679.88;293037;33;6220;-70
2023/09/21 00:10:29;;;;;;;409.38;364.65;;;;;;;22.48;71.04;99683.53;291398;33;5727;-70
2023/09/21 00:10:39;;;;;;;407.67;363.23;;;;;;;22.48;71.42;99685.34;294816;33;974;-70
2023/09/21 00:10:54;;;;;;;408.33;363.88;;;;;;;22.47;70.98;99679.16;294688;33;5806;-70
2023/09/21 00:11:04;;;;;;;410.92;366.23;;;;;;;22.46;70.95;99679.31;292654;33;5532;-70
2023/09/21 00:11:16;;;;;;;412.38;367.67;;;;;;;22.45;71.37;99677.63;291778;33;4321;-70
2023/09/21 00:11:26;;;;;;;421.38;376.50;;;;;;;22.45;71.33;99680.28;292264;33;950;-70
2023/09/21 00:11:36;;;;;;;425.42;380.33;;;;;;;22.47;71.30;99678.31;288910;33;5040;-70
2023/09/21 00:11:48;;;;;;;426.53;381.10;;;;;;;22.46;71.33;99682.81;286910;34;6247;-70
2023/09/21 00:11:58;;;;;;;419.77;374.17;;;;;;;22.45;71.33;99685.63;285664;34;7593;-72
2023/09/21 00:12:10;;;;;;;410.98;365.85;;;;;;;22.47;71.09;99683.66;289507;34;1074;-70
2023/09/21 00:12:20;;;;;;;405.50;360.80;;;;;;;22.47;71.51;99681.00;288334;34;8954;-70
2023/09/21 00:12:31;;;;;;;408.08;363.45;;;;;;;22.47;71.39;99681.00;288361;33;8154;-70
2023/09/21 00:12:42;;;;;;;421.80;376.67;;;;;;;22.46;71.29;99676.63;286776;33;1424;-70
2023/09/21 00:12:52;;;;;;;422.38;377.20;;;;;;;22.47;70.97;99683.66;282751;34;7994;-70
2023/09/21 00:14:36;;;;;;;391.81;335.85;;;;;;;22.51;71.08;99685.94;2486792;27;20279;-70
2023/09/21 00:14:46;;;;;;;407.43;362.73;;;;;;;22.52;70.76;99678.75;350645;28;1319;-70
2023/09/21 00:14:58;;;;;;;400.25;354.67;;;;;;;22.51;70.87;99682.41;350781;28;835;-70
2023/09/21 00:15:08;;;;;;;407.98;363.23;;;;;;;22.50;70.70;99684.22;348240;28;1475;-70
2023/09/21 00:15:19;;;;;;;417.13;371.88;;;;;;;22.51;70.77;99680.59;346643;28;935;-70
2023/09/21 00:15:29;;;;;;;421.80;376.47;;;;;;;22.51;70.93;99685.06;347575;28;1351;-70
2023/09/21 00:15:41;;;;;;;413.10;368.15;;;;;;;22.50;71.11;99683.41;346850;28;938;-70
2023/09/21 00:15:52;;;;;;;405.42;360.98;;;;;;;22.49;70.91;99682.53;348153;28;1016;-70
2023/09/21 00:16:03;;;;;;;412.17;367.52;;;;;;;22.48;71.14;99682.69;347992;28;1451;-70
2023/09/21 00:16:14;;;;;;;422.40;377.43;;;;;;;22.50;71.13;99686.06;347591;28;1517;-70
2023/09/21 00:16:25;;;;;;;411.35;366.73;;;;;;;22.47;70.76;99678.31;348219;28;1414;-70
2023/09/21 00:16:35;;;;;;;396.17;350.10;;;;;;;22.46;71.15;99688.16;348260;28;820;-70
2023/09/21 00:16:46;;;;;;;398.93;346.73;;;;;;;22.47;70.83;99689.00;347861;28;934;-70
2023/09/21 00:16:56;;;;;;;404.93;352.70;;;;;;;22.47;71.01;99683.66;347912;28;881;-70
2023/09/21 00:17:07;;;;;;;408.25;354.80;;;;;;;22.45;70.90;99685.63;347370;28;1300;-70
2023/09/21 00:17:18;;;;;;;401.83;351.50;;;;;;;22.45;70.86;99685.63;346632;28;867;-70
2023/09/21 00:17:29;;;;;;;400.48;353.15;;;;;;;22.42;71.21;99681.41;348090;28;793;-70
2023/09/21 00:17:39;;;;;;;401.75;357.33;;;;;;;22.41;71.01;99690.38;348714;28;1335;-70
2023/09/21 00:17:53;;;;;;;404.83;360.17;;;;;;;22.42;70.86;99685.91;348815;28;1494;-70
2023/09/21 00:18:05;;;;;;;404.17;359.08;;;;;;;22.38;70.98;99685.31;348698;28;1565;-70
2023/09/21 00:18:15;;;;;;;408.58;363.65;;;;;;;22.36;71.05;99676.59;348728;28;954;-70
2023/09/21 00:18:26;;;;;;;412.87;367.73;;;;;;;22.36;71.25;99686.44;349355;28;1168;-70
2023/09/21 00:18:39;;;;;;;413.05;368.08;;;;;;;22.34;71.04;99688.38;348000;28;1285;-70
2023/09/21 00:18:50;;;;;;;408.95;364.17;;;;;;;22.34;70.83;99683.06;345276;28;844;-70
2023/09/21 00:19:06;;;;;;;404.58;359.98;;;;;;;22.34;71.31;99685.72;345251;28;938;-70
2023/09/21 00:19:17;;;;;;;399.90;354.23;;;;;;;22.34;71.21;99683.06;343793;28;1415;-70
2023/09/21 00:19:27;;;;;;;402.02;357.45;;;;;;;22.33;70.95;99682.22;345313;28;1296;-70
2023/09/21 00:19:38;;;;;;;402.93;358.50;;;;;;;22.33;70.85;99678.69;345347;28;1201;-70
2023/09/21 00:19:50;;;;;;;408.65;363.95;;;;;;;22.34;71.10;99688.38;347167;28;1518;-70
2023/09/21 00:20:45;;;;;;;420.08;374.88;;;;;;;22.31;70.61;99678.00;341711;28;1156;-71
2023/09/21 00:20:57;;;;;;;415.23;370.33;;;;;;;22.31;70.68;99684.16;341301;28;1302;-70
2023/09/21 00:21:07;;;;;;;405.27;360.77;;;;;;;22.31;70.77;99684.16;342348;28;1362;-70
2023/09/21 00:21:18;;;;;;;405.57;360.90;;;;;;;22.32;70.42;99685.00;338634;29;1157;-70
2023/09/21 00:21:31;;;;;;;408.30;363.52;;;;;;;22.32;70.36;99683.19;338163;29;1302;-70
2023/09/21 00:21:43;;;;;;;404.98;360.13;;;;;;;22.33;70.50;99681.38;338828;29;936;-70
2023/09/21 00:21:57;;;;;;;402.52;353.75;;;;;;;22.34;70.61;99685.72;339906;29;906;-70
2023/09/21 00:22:07;;;;;;;410.90;365.77;;;;;;;22.35;70.84;99684.75;338574;29;1316;-70
2023/09/21 00:22:18;;;;;;;419.27;374.05;;;;;;;22.37;70.17;99682.78;340522;28;957;-70
2023/09/21 00:22:30;;;;;;;415.80;370.73;;;;;;;22.37;70.07;99680.13;337969;29;1335;-70
2023/09/21 00:22:42;;;;;;;408.30;363.40;;;;;;;22.36;70.60;99681.94;335885;29;1109;-70
2023/09/21 00:22:56;;;;;;;407.23;362.23;;;;;;;22.36;70.21;99687.28;334912;29;1294;-70
2023/09/21 00:23:06;;;;;;;405.63;360.77;;;;;;;22.34;70.17;99688.38;331075;29;827;-71
2023/09/21 00:23:16;;;;;;;404.98;360.25;;;;;;;22.35;69.99;99679.41;330751;29;1634;-70
2023/09/21 00:23:27;;;;;;;406.50;361.83;;;;;;;22.33;70.19;99676.88;329496;29;1986;-70
2023/09/21 00:23:37;;;;;;;406.45;361.77;;;;;;;22.33;70.21;99681.38;330274;29;1336;-70
2023/09/21 00:23:48;;;;;;;411.17;366.30;;;;;;;22.32;70.23;99685.00;328420;30;873;-70
2023/09/21 00:23:59;;;;;;;412.37;367.53;;;;;;;22.31;70.59;99688.66;331279;29;1057;-69
2023/09/21 00:24:12;;;;;;;411.65;366.73;;;;;;;22.28;70.32;99678.25;329713;29;1056;-70
2023/09/21 00:24:22;;;;;;;407.25;362.45;;;;;;;22.27;70.14;99681.91;327227;30;962;-70
2023/09/21 00:24:33;;;;;;;410.83;366.13;;;;;;;22.26;70.70;99675.72;328926;29;1573;-70
2023/09/21 00:24:44;;;;;;;406.88;362.17;;;;;;;22.24;70.63;99683.88;327328;29;1681;-70
2023/09/21 00:24:54;;;;;;;399.52;350.95;;;;;;;22.22;70.50;99680.50;328084;30;1497;-69
2023/09/21 00:25:07;;;;;;;402.23;355.27;;;;;;;22.22;70.67;99685.81;325714;30;1510;-69
2023/09/21 00:25:19;;;;;;;415.05;369.95;;;;;;;22.23;70.58;99679.50;316154;30;2086;-69
2023/09/21 00:25:30;;;;;;;414.85;369.83;;;;;;;22.24;70.40;99683.03;315485;30;2029;-69
2023/09/21 00:25:40;;;;;;;410.02;365.10;;;;;;;22.24;70.61;99689.19;316274;30;1967;-69
2023/09/21 00:25:57;;;;;;;404.57;359.93;;;;;;;22.24;70.82;99683.88;320249;30;790;-69
2023/09/21 00:26:09;;;;;;;406.73;362.13;;;;;;;22.24;70.49;99681.19;316455;31;996;-69
2023/09/21 00:26:19;;;;;;;404.80;360.30;;;;;;;22.25;70.45;99679.38;316440;31;1417;-69
2023/09/21 00:26:30;;;;;;;407.03;362.53;;;;;;;22.27;70.49;99676.56;317469;30;2177;-69
2023/09/21 00:26:40;;;;;;;408.05;363.35;;;;;;;22.28;70.60;99678.25;314985;31;2410;-69
2023/09/21 00:26:51;;;;;;;405.80;361.17;;;;;;;22.28;70.69;99684.44;314925;31;1237;-69
2023/09/21 00:27:01;;;;;;;401.07;356.10;;;;;;;22.30;70.53;99679.81;311675;31;2422;-69
2023/09/21 00:27:12;;;;;;;399.52;354.90;;;;;;;22.31;70.42;99678.00;308424;31;2193;-69
2023/09/21 00:27:22;;;;;;;410.10;365.33;;;;;;;22.30;70.15;99677.16;307542;32;1763;-69
2023/09/21 00:27:33;;;;;;;409.17;364.50;;;;;;;22.30;70.46;99677.16;308542;31;2754;-69
2023/09/21 00:27:44;;;;;;;404.23;359.58;;;;;;;22.31;70.30;99672.66;310722;31;2868;-69
2023/09/21 00:27:54;;;;;;;399.17;349.67;;;;;;;22.33;70.35;99678.69;311995;31;812;-70
2023/09/21 00:28:11;;;;;;;401.15;356.02;;;;;;;22.34;70.11;99680.38;310825;31;1967;-71
2023/09/21 00:28:22;;;;;;;407.67;362.98;;;;;;;22.34;70.17;99677.72;307625;32;1414;-70
2023/09/21 00:28:32;;;;;;;410.57;365.67;;;;;;;22.34;70.13;99683.06;306404;32;2198;-70
2023/09/21 00:28:43;;;;;;;416.75;371.55;;;;;;;22.33;69.94;99676.03;305714;32;2622;-70
2023/09/21 00:28:54;;;;;;;422.80;377.50;;;;;;;22.33;69.80;99679.53;305610;32;1696;-70
2023/09/21 00:29:05;;;;;;;423.33;378.13;;;;;;;22.33;69.81;99681.38;306665;32;3267;-71
2023/09/21 00:29:16;;;;;;;416.10;371.17;;;;;;;22.32;70.18;99677.84;307386;31;3207;-70
2023/09/21 00:29:27;;;;;;;410.15;365.35;;;;;;;22.32;69.86;99679.69;308587;31;3089;-70
2023/09/21 00:29:39;;;;;;;412.13;367.30;;;;;;;22.30;70.05;99677.16;308962;31;1293;-70
2023/09/21 00:29:49;;;;;;;410.84;365.84;;;;;;;22.29;70.06;99679.94;307400;31;3563;-70
2023/09/21 00:30:04;;;;;;;413.77;368.43;;;;;;;22.29;70.17;99674.63;308932;31;3586;-72
2023/09/21 00:30:15;;;;;;;412.55;367.45;;;;;;;22.28;69.87;99679.09;310218;31;2876;-72
2023/09/21 00:30:25;;;;;;;416.60;371.43;;;;;;;22.27;70.21;99674.75;307153;31;2263;-72
2023/09/21 00:30:35;;;;;;;411.63;367.05;;;;;;;22.27;69.97;99676.56;307311;32;1422;-73
2023/09/21 00:30:46;;;;;;;410.37;365.77;;;;;;;22.28;69.89;99672.94;306894;32;3067;-72
2023/09/21 00:30:59;;;;;;;411.27;366.35;;;;;;;22.26;70.20;99678.41;303539;32;3726;-72
2023/09/21 00:31:09;;;;;;;409.27;364.08;;;;;;;22.27;69.73;99682.75;300138;32;861;-72
2023/09/21 00:31:20;;;;;;;416.20;370.80;;;;;;;22.26;70.18;99674.88;296269;33;4678;-72
2023/09/21 00:31:30;;;;;;;418.67;373.70;;;;;;;22.24;70.09;99677.69;299152;32;4601;-73
2023/09/21 00:31:41;;;;;;;427.77;382.37;;;;;;;22.23;70.31;99676.84;300870;32;4275;-72
2023/09/21 00:31:51;;;;;;;420.27;374.85;;;;;;;22.22;70.22;99676.97;302690;32;940;-72
2023/09/21 00:32:01;;;;;;;413.73;368.17;;;;;;;22.24;70.01;99677.69;299354;32;4954;-70
2023/09/21 00:32:12;;;;;;;409.70;361.42;;;;;;;22.24;70.31;99683.03;297579;32;5065;-70
2023/09/21 00:32:22;;;;;;;411.33;365.87;;;;;;;22.23;69.95;99676.84;299923;32;1465;-70
2023/09/21 00:32:39;;;;;;;408.90;364.00;;;;;;;22.22;69.65;99675.16;296715;32;3509;-70
2023/09/21 00:32:49;;;;;;;408.80;363.95;;;;;;;22.21;70.14;99677.97;297615;33;3198;-70
2023/09/21 00:33:00;;;;;;;407.98;362.95;;;;;;;22.21;69.92;99669.97;294338;33;4507;-70
2023/09/21 00:33:11;;;;;;;412.90;367.70;;;;;;;22.21;69.96;99678.81;290913;33;5524;-70
2023/09/21 00:33:21;;;;;;;406.23;361.23;;;;;;;22.20;69.92;99679.78;288148;34;1316;-71
2023/09/21 00:33:32;;;;;;;402.02;357.15;;;;;;;22.20;69.79;99679.78;287770;33;6508;-71
2023/09/21 00:33:43;;;;;;;407.65;363.02;;;;;;;22.20;69.86;99677.13;289156;33;6270;-70
2023/09/21 00:33:54;;;;;;;413.17;368.33;;;;;;;22.21;70.00;99678.81;289597;34;1710;-70
2023/09/21 00:34:05;;;;;;;417.45;372.45;;;;;;;22.20;69.70;99682.44;287700;34;6185;-70
2023/09/21 00:34:16;;;;;;;411.10;365.93;;;;;;;22.19;70.10;99678.09;288402;33;6696;-70
2023/09/21 00:34:26;;;;;;;406.35;361.42;;;;;;;22.19;70.17;99675.44;289478;33;6766;-70
2023/09/21 00:34:37;;;;;;;404.45;359.60;;;;;;;22.18;70.29;99678.22;291411;33;1644;-70
2023/09/21 00:34:51;;;;;;;403.83;356.80;;;;;;;22.16;69.97;99683.69;286151;34;5016;-70
2023/09/21 00:35:06;;;;;;;408.83;360.90;;;;;;;22.17;69.89;99682.72;287224;34;4515;-70
2023/09/21 00:35:18;;;;;;;413.35;367.67;;;;;;;22.16;69.79;99685.50;283417;34;5887;-70
2023/09/21 00:35:29;;;;;;;407.50;361.63;;;;;;;22.16;70.09;99681.03;281398;34;7566;-70
2023/09/21 00:35:39;;;;;;;408.10;361.17;;;;;;;22.14;70.05;99688.31;284771;34;805;-70
2023/09/21 00:35:50;;;;;;;407.15;361.45;;;;;;;22.15;69.93;99675.81;284291;34;9620;-70
2023/09/21 00:36:04;;;;;;;417.00;371.50;;;;;;;22.14;70.08;99685.66;283271;34;8931;-70
2023/09/21 00:36:17;;;;;;;421.67;376.38;;;;;;;22.13;69.82;99681.28;284361;34;9397;-71
2023/09/21 00:36:27;;;;;;;411.92;366.98;;;;;;;22.14;69.84;99682.13;283003;34;9350;-70
2023/09/21 00:36:40;;;;;;;401.60;354.10;;;;;;;22.11;69.90;99683.25;279352;35;1672;-70
2023/09/21 00:36:53;;;;;;;401.75;353.55;;;;;;;22.12;69.73;99682.28;280026;35;1409;-70
2023/09/21 00:37:04;;;;;;;396.30;345.40;;;;;;;22.12;70.11;99679.59;277977;35;6871;-71
2023/09/21 00:38:57;;;;;;;389.43;330.20;;;;;;;22.12;70.36;99682.28;2483425;27;20498;-70
2023/09/21 00:39:09;;;;;;;401.00;348.13;;;;;;;22.12;69.89;99684.94;353555;27;1315;-70
2023/09/21 00:39:19;;;;;;;400.65;351.30;;;;;;;22.13;69.76;99688.44;352234;28;809;-70
2023/09/21 00:39:32;;;;;;;401.60;355.37;;;;;;;22.13;69.70;99677.78;351989;28;808;-71
2023/09/21 00:39:42;;;;;;;402.05;357.50;;;;;;;22.13;69.90;99685.78;352131;28;934;-71
2023/09/21 00:39:52;;;;;;;401.63;356.83;;;;;;;22.12;70.06;99678.75;350169;28;1244;-71
2023/09/21 00:40:18;;;;;;;402.50;357.77;;;;;;;22.12;69.97;99679.59;348021;28;828;-71
2023/09/21 00:40:28;;;;;;;410.30;365.35;;;;;;;22.13;70.06;99681.28;347956;28;1279;-71
2023/09/21 00:40:39;;;;;;;405.77;360.70;;;;;;;22.13;70.08;99681.28;346326;28;877;-70
2023/09/21 00:40:49;;;;;;;410.52;365.45;;;;;;;22.14;69.66;99682.13;346996;28;1435;-70
2023/09/21 00:41:07;;;;;;;410.90;365.83;;;;;;;22.14;69.59;99679.47;346472;28;1780;-70
2023/09/21 00:41:18;;;;;;;405.13;357.65;;;;;;;22.12;69.89;99679.59;347650;28;992;-70
2023/09/21 00:41:31;;;;;;;402.85;350.10;;;;;;;22.11;69.74;99680.59;346603;28;1298;-70
2023/09/21 00:41:42;;;;;;;406.50;360.65;;;;;;;22.11;69.74;99683.25;346273;28;1073;-70
2023/09/21 00:41:53;;;;;;;413.67;368.27;;;;;;;22.08;70.02;99678.22;345162;28;1406;-70
2023/09/21 00:42:03;;;;;;;413.33;368.10;;;;;;;22.07;70.31;99687.19;345085;28;1436;-70
2023/09/21 00:42:14;;;;;;;403.98;358.58;;;;;;;22.07;69.80;99684.53;343841;28;849;-70
2023/09/21 00:42:24;;;;;;;401.87;352.20;;;;;;;22.07;70.22;99675.69;346382;28;1262;-70
2023/09/21 00:42:34;;;;;;;402.20;354.25;;;;;;;22.05;70.15;99683.81;347772;28;925;-70
2023/09/21 00:42:45;;;;;;;401.47;356.47;;;;;;;22.05;70.29;99682.97;347602;28;1223;-70
2023/09/21 00:42:56;;;;;;;401.30;349.63;;;;;;;22.06;70.35;99682.00;346542;28;1423;-70
2023/09/21 00:43:07;;;;;;;399.30;344.67;;;;;;;22.06;69.90;99685.50;345395;28;1405;-70
2023/09/21 00:43:21;;;;;;;401.73;352.02;;;;;;;22.05;70.28;99685.63;343700;28;1417;-70
2023/09/21 00:43:32;;;;;;;409.42;364.70;;;;;;;22.04;70.07;99684.78;346313;28;1240;-70
2023/09/21 00:43:42;;;;;;;411.60;366.63;;;;;;;22.03;70.51;99684.91;347892;28;1414;-71
2023/09/21 00:43:52;;;;;;;416.23;371.05;;;;;;;22.03;69.94;99683.09;349291;28;903;-70
2023/09/21 00:44:09;;;;;;;418.53;373.30;;;;;;;22.02;70.37;99676.09;345342;28;1255;-70
2023/09/21 00:44:20;;;;;;;422.25;376.90;;;;;;;22.01;70.16;99682.38;344784;28;900;-71
2023/09/21 00:44:30;;;;;;;414.67;369.63;;;;;;;22.01;69.98;99684.19;343902;28;903;-69
2023/09/21 00:44:41;;;;;;;409.80;364.83;;;;;;;22.00;69.95;99683.34;344990;28;1302;-70
2023/09/21 00:44:51;;;;;;;405.95;361.25;;;;;;;21.99;69.82;99673.66;346362;28;934;-70
2023/09/21 00:45:02;;;;;;;402.87;358.27;;;;;;;21.99;70.14;99683.47;344971;28;1561;-70
2023/09/21 00:45:14;;;;;;;402.58;356.35;;;;;;;21.99;70.23;99675.47;345298;28;1129;-69
2023/09/21 00:45:24;;;;;;;407.40;351.52;;;;;;;22.00;70.41;99680.66;343455;28;1091;-70
2023/09/21 00:45:37;;;;;;;409.67;351.53;;;;;;;22.00;70.27;99686.00;345332;28;1331;-70
2023/09/21 00:45:52;;;;;;;403.78;346.06;;;;;;;22.00;70.17;99678.00;346152;28;912;-70
2023/09/21 00:46:03;;;;;;;406.50;346.63;;;;;;;22.01;69.85;99681.50;340171;28;782;-70
2023/09/21 00:46:13;;;;;;;405.05;346.45;;;;;;;22.00;70.22;99678.00;341276;28;795;-70
2023/09/21 00:46:26;;;;;;;403.90;344.70;;;;;;;22.00;70.15;99680.66;341777;28;920;-70
2023/09/21 00:46:38;;;;;;;402.30;348.30;;;;;;;21.99;69.87;99678.97;340837;28;1474;-70
2023/09/21 00:46:48;;;;;;;402.85;351.02;;;;;;;21.99;70.26;99681.66;338494;28;1406;-70
2023/09/21 00:46:59;;;;;;;408.02;349.75;;;;;;;21.99;69.78;99678.13;335760;29;1461;-70
2023/09/21 00:47:10;;;;;;;407.05;348.52;;;;;;;21.99;69.98;99684.31;336769;29;1038;-70
2023/09/21 00:47:20;;;;;;;406.17;346.20;;;;;;;22.00;69.77;99687.81;339646;29;1542;-70
2023/09/21 00:47:30;;;;;;;399.57;341.97;;;;;;;22.00;69.96;99674.50;338597;29;1558;-70
2023/09/21 00:47:45;;;;;;;400.17;342.63;;;;;;;22.00;70.03;99680.66;333234;29;1627;-70
2023/09/21 00:47:56;;;;;;;402.13;350.27;;;;;;;22.00;69.62;99675.34;334266;29;1438;-70
2023/09/21 00:48:10;;;;;;;401.92;352.15;;;;;;;22.01;70.08;99687.72;337115;29;2028;-70
2023/09/21 00:48:25;;;;;;;400.63;350.42;;;;;;;22.05;70.18;99682.97;339669;28;1506;-70
2023/09/21 00:48:38;;;;;;;400.95;350.25;;;;;;;22.04;69.90;99676.78;338353;29;1001;-71
2023/09/21 00:48:50;;;;;;;403.23;357.45;;;;;;;22.02;70.01;99678.75;336961;29;1495;-70
2023/09/21 00:49:00;;;;;;;401.70;354.20;;;;;;;22.02;69.75;99678.75;334675;29;858;-70
2023/09/21 00:49:11;;;;;;;402.27;352.98;;;;;;;22.02;70.04;99677.91;335581;29;1554;-71
2023/09/21 00:49:22;;;;;;;401.48;350.67;;;;;;;22.01;69.93;99677.06;335822;29;1380;-70
2023/09/21 00:49:36;;;;;;;400.88;349.55;;;;;;;21.99;70.01;99673.66;337650;29;2035;-70
2023/09/21 00:49:46;;;;;;;401.92;349.40;;;;;;;21.98;70.65;99681.78;329599;29;858;-70
2023/09/21 00:49:56;;;;;;;400.60;341.70;;;;;;;21.98;70.15;99677.28;328479;29;1198;-70
2023/09/21 00:50:11;;;;;;;401.83;345.13;;;;;;;21.98;70.63;99674.63;330814;29;2181;-70
2023/09/21 00:50:22;;;;;;;399.83;346.88;;;;;;;21.95;70.46;99677.56;330826;29;1604;-70
2023/09/21 00:50:32;;;;;;;399.05;346.45;;;;;;;21.96;70.59;99684.56;328137;29;1750;-70
2023/09/21 00:50:43;;;;;;;400.63;343.97;;;;;;;21.95;70.44;99682.03;324615;30;1283;-70
2023/09/21 00:50:58;;;;;;;400.67;344.97;;;;;;;21.96;70.41;99673.91;322726;30;1832;-70
2023/09/21 00:51:09;;;;;;;400.67;347.58;;;;;;;21.97;70.82;99680.94;322808;30;2014;-70
2023/09/21 00:51:20;;;;;;;400.77;346.75;;;;;;;21.97;70.62;99680.94;320869;30;1999;-70
2023/09/21 00:51:32;;;;;;;399.73;343.35;;;;;;;21.98;70.48;99679.13;319974;30;897;-70
2023/09/21 00:51:43;;;;;;;402.52;346.95;;;;;;;21.98;71.46;99682.63;316154;31;1248;-70
2023/09/21 00:51:56;;;;;;;403.15;349.30;;;;;;;21.99;71.49;99681.66;319113;30;3227;-70
2023/09/21 00:52:11;;;;;;;403.42;355.58;;;;;;;22.00;71.56;99679.81;317766;30;2594;-70
2023/09/21 00:52:22;;;;;;;405.35;355.92;;;;;;;22.01;71.96;99682.38;317323;31;1902;-70
2023/09/21 00:52:33;;;;;;;402.70;351.15;;;;;;;21.99;72.04;99678.97;316938;30;1360;-70
2023/09/21 00:52:44;;;;;;;401.07;349.60;;;;;;;21.99;72.52;99676.31;316468;31;1317;-70
2023/09/21 00:52:55;;;;;;;400.58;347.38;;;;;;;21.99;72.51;99678.13;314846;31;2084;-70
2023/09/21 00:53:05;;;;;;;401.83;346.88;;;;;;;21.99;72.61;99673.66;311948;31;2536;-71
2023/09/21 00:53:15;;;;;;;402.80;348.63;;;;;;;22.01;72.63;99676.19;311295;31;1304;-71
2023/09/21 00:53:27;;;;;;;405.08;355.73;;;;;;;22.00;72.69;99677.16;307911;31;2850;-71
2023/09/21 00:53:39;;;;;;;402.65;356.45;;;;;;;22.00;73.15;99678.00;309851;31;3099;-71
2023/09/21 00:53:49;;;;;;;401.58;354.83;;;;;;;22.00;72.75;99671.84;310361;31;3231;-71
2023/09/21 00:54:00;;;;;;;400.67;351.88;;;;;;;22.00;72.21;99672.66;311962;31;883;-71
2023/09/21 00:54:11;;;;;;;399.50;346.50;;;;;;;22.01;72.21;99677.06;315460;31;3820;-71
2023/09/21 00:54:21;;;;;;;401.13;350.20;;;;;;;22.01;71.77;99679.72;313206;31;3390;-71
2023/09/21 00:54:32;;;;;;;403.93;350.93;;;;;;;22.00;71.58;99672.66;311281;31;2247;-71
2023/09/21 00:54:42;;;;;;;404.90;351.57;;;;;;;21.97;71.40;99675.59;310850;31;1222;-71
2023/09/21 00:54:55;;;;;;;404.30;353.25;;;;;;;21.99;71.42;99673.66;316066;30;2627;-71
2023/09/21 00:55:07;;;;;;;403.17;353.40;;;;;;;21.99;71.50;99676.31;317965;30;2904;-71
2023/09/21 00:55:23;;;;;;;405.10;356.08;;;;;;;22.00;71.05;99675.34;317826;30;3630;-71
2023/09/21 00:55:39;;;;;;;403.38;351.73;;;;;;;22.00;71.23;99674.50;314293;31;4066;-71
2023/09/21 00:55:52;;;;;;;400.23;342.85;;;;;;;21.99;70.86;99673.66;313877;31;4027;-71
2023/09/21 00:56:08;;;;;;;400.23;338.88;;;;;;;21.97;71.25;99675.59;315496;30;4353;-71
2023/09/21 00:56:18;;;;;;;402.33;345.60;;;;;;;21.96;71.04;99673.91;311043;31;5028;-71
2023/09/21 00:56:29;;;;;;;403.90;339.87;;;;;;;21.96;71.12;99679.25;310621;31;1485;-71
2023/09/21 00:56:40;;;;;;;405.05;339.63;;;;;;;21.96;71.17;99673.91;309182;31;4815;-70
2023/09/21 00:56:52;;;;;;;402.38;342.15;;;;;;;21.97;70.89;99680.94;310066;31;3471;-70
2023/09/21 00:57:02;;;;;;;402.13;349.90;;;;;;;21.98;70.79;99671.97;310158;31;4141;-70
2023/09/21 00:57:13;;;;;;;400.23;351.67;;;;;;;21.98;70.91;99671.97;307415;32;1409;-70